createdAt,value
2023-03-15T00:01:21.189Z,91.79
2023-03-15T00:03:49.159Z,91.24
2023-03-15T00:06:16.802Z,91.98
2023-03-15T00:08:48.015Z,92.23
2023-03-15T00:11:19.107Z,92.39
2023-03-15T00:13:46.974Z,92.52
2023-03-15T00:16:18.985Z,91.35
2023-03-15T00:18:47.595Z,90.93
2023-03-15T00:21:15.701Z,91.75
2023-03-15T00:23:43.434Z,91.93
2023-03-15T00:26:17.092Z,91.46
2023-03-15T00:28:44.915Z,90.60
2023-03-15T00:31:20.855Z,91.29
2023-03-15T00:33:49.089Z,90.64
2023-03-15T00:36:16.911Z,90.70
2023-03-15T00:38:47.129Z,90.23
2023-03-15T00:41:21.865Z,90.19
2023-03-15T00:43:49.504Z,90.91
2023-03-15T00:46:18.370Z,90.70
2023-03-15T00:48:51.420Z,90.05
2023-03-15T00:51:21.843Z,90.77
2023-03-15T00:53:52.671Z,90.85
2023-03-15T00:56:23.731Z,90.86
2023-03-15T00:58:53.266Z,90.97
2023-03-15T01:01:23.533Z,90.58
2023-03-15T01:03:51.664Z,90.06
2023-03-15T01:06:24.459Z,89.98
2023-03-15T01:08:56.215Z,90.46
2023-03-15T01:11:27.493Z,90.81
2023-03-15T01:13:57.493Z,90.85
2023-03-15T01:16:26.204Z,90.15
2023-03-15T01:18:54.397Z,89.72
2023-03-15T01:21:23.352Z,89.84
2023-03-15T01:23:51.278Z,89.87
2023-03-15T01:26:19.141Z,89.68
2023-03-15T01:28:48.033Z,89.37
2023-03-15T01:31:21.673Z,89.71
2023-03-15T01:33:49.528Z,90.04
2023-03-15T01:36:16.872Z,90.02
2023-03-15T01:38:50.052Z,90.99
2023-03-15T01:41:19.354Z,89.84
2023-03-15T01:43:49.622Z,89.68
2023-03-15T01:46:34.780Z,89.36
2023-03-15T01:49:25.911Z,89.54
2023-03-15T01:52:19.583Z,90.11
2023-03-15T01:55:02.874Z,90.82
2023-03-15T01:57:46.090Z,90.58
2023-03-15T02:00:15.901Z,90.80
2023-03-15T02:02:52.193Z,90.70
2023-03-15T02:05:26.464Z,90.64
2023-03-15T02:07:55.188Z,91.68
2023-03-15T02:10:44.323Z,93.14
2023-03-15T02:13:15.219Z,93.58
2023-03-15T02:15:47.016Z,92.54
2023-03-15T02:18:17.700Z,92.45
2023-03-15T02:21:10.887Z,92.40
2023-03-15T02:23:39.463Z,91.74
2023-03-15T02:26:26.284Z,92.53
2023-03-15T02:28:54.656Z,92.34
2023-03-15T02:31:22.584Z,91.73
2023-03-15T02:33:52.655Z,91.33
2023-03-15T02:36:26.266Z,92.21
2023-03-15T02:38:56.054Z,91.61
2023-03-15T02:41:37.007Z,91.86
2023-03-15T02:44:27.234Z,91.96
2023-03-15T02:47:03.148Z,92.57
2023-03-15T02:49:33.320Z,91.67
2023-03-15T02:52:00.773Z,90.47
2023-03-15T02:54:28.103Z,90.47
2023-03-15T02:56:55.598Z,89.73
2023-03-15T02:59:23.080Z,89.12
2023-03-15T03:01:51.491Z,88.87
2023-03-15T03:04:19.415Z,88.57
2023-03-15T03:06:46.539Z,88.81
2023-03-15T03:09:14.104Z,88.64
2023-03-15T03:11:42.355Z,87.99
2023-03-15T03:14:10.002Z,87.57
2023-03-15T03:16:37.302Z,87.46
2023-03-15T03:19:05.947Z,86.61
2023-03-15T03:21:34.308Z,85.81
2023-03-15T03:24:02.045Z,86.08
2023-03-15T03:26:32.990Z,86.08
2023-03-15T03:29:02.284Z,85.35
2023-03-15T03:31:34.093Z,85.41
2023-03-15T03:34:03.553Z,85.82
2023-03-15T03:36:31.816Z,85.90
2023-03-15T03:38:59.716Z,85.96
2023-03-15T03:41:28.331Z,86.37
2023-03-15T03:43:55.685Z,85.63
2023-03-15T03:46:24.263Z,86.12
2023-03-15T03:48:51.733Z,85.87
2023-03-15T03:51:19.162Z,85.61
2023-03-15T03:53:48.675Z,86.20
2023-03-15T03:56:16.203Z,86.28
2023-03-15T03:58:49.699Z,86.62
2023-03-15T04:01:17.571Z,86.62
2023-03-15T04:03:45.214Z,87.11
2023-03-15T04:06:12.357Z,87.13
2023-03-15T04:08:39.478Z,86.62
2023-03-15T04:11:07.778Z,86.18
2023-03-15T04:13:34.945Z,86.69
2023-03-15T04:16:04.192Z,87.09
2023-03-15T04:18:33.407Z,87.25
2023-03-15T04:21:00.877Z,87.06
2023-03-15T04:23:29.318Z,86.21
2023-03-15T04:25:58.239Z,86.40
2023-03-15T04:28:25.910Z,86.39
2023-03-15T04:31:02.054Z,86.64
2023-03-15T04:33:29.682Z,87.13
2023-03-15T04:35:58.236Z,87.35
2023-03-15T04:38:27.459Z,87.43
2023-03-15T04:40:55.618Z,87.51
2023-03-15T04:43:25.140Z,87.89
2023-03-15T04:45:58.765Z,87.92
2023-03-15T04:48:28.128Z,88.39
2023-03-15T04:50:55.565Z,88.21
2023-03-15T04:53:35.081Z,88.10
2023-03-15T04:56:04.734Z,87.65
2023-03-15T04:58:32.331Z,87.75
2023-03-15T05:00:59.969Z,87.88
2023-03-15T05:03:27.475Z,87.98
2023-03-15T05:05:54.589Z,87.92
2023-03-15T05:08:22.816Z,87.88
2023-03-15T05:10:50.271Z,87.37
2023-03-15T05:13:19.250Z,87.78
2023-03-15T05:15:46.665Z,88.00
2023-03-15T05:18:14.573Z,88.10
2023-03-15T05:20:42.104Z,88.02
2023-03-15T05:23:09.182Z,87.95
2023-03-15T05:25:38.733Z,88.22
2023-03-15T05:28:07.151Z,88.56
2023-03-15T05:30:41.404Z,87.87
2023-03-15T05:33:08.662Z,87.36
2023-03-15T05:35:36.027Z,87.54
2023-03-15T05:38:04.581Z,87.86
2023-03-15T05:40:33.407Z,87.93
2023-03-15T05:43:00.725Z,87.66
2023-03-15T05:45:28.961Z,87.40
2023-03-15T05:47:56.789Z,87.95
2023-03-15T05:50:24.964Z,88.10
2023-03-15T05:52:52.493Z,87.93
2023-03-15T05:55:19.773Z,88.67
2023-03-15T05:57:47.223Z,87.65
2023-03-15T06:00:15.512Z,87.01
2023-03-15T06:02:45.333Z,86.82
2023-03-15T06:05:18.922Z,86.28
2023-03-15T06:07:46.630Z,86.10
2023-03-15T06:10:14.478Z,86.11
2023-03-15T06:12:54.093Z,86.05
2023-03-15T06:15:21.548Z,85.55
2023-03-15T06:17:49.595Z,85.78
2023-03-15T06:20:17.143Z,86.72
2023-03-15T06:22:45.438Z,86.61
2023-03-15T06:25:14.053Z,85.62
2023-03-15T06:27:41.353Z,85.65
2023-03-15T06:30:09.509Z,85.35
2023-03-15T06:32:38.862Z,84.58
2023-03-15T06:35:07.658Z,85.14
2023-03-15T06:37:36.478Z,85.17
2023-03-15T06:40:08.244Z,84.00
2023-03-15T06:42:36.327Z,84.25
2023-03-15T06:45:04.367Z,83.78
2023-03-15T06:47:33.180Z,83.60
2023-03-15T06:50:00.413Z,83.30
2023-03-15T06:52:34.309Z,81.79
2023-03-15T06:55:01.775Z,81.71
2023-03-15T06:57:29.352Z,80.58
2023-03-15T06:59:57.104Z,80.91
2023-03-15T07:02:24.192Z,80.32
2023-03-15T07:04:51.606Z,79.66
2023-03-15T07:07:19.098Z,79.73
2023-03-15T07:09:47.513Z,80.06
2023-03-15T07:12:15.090Z,80.19
2023-03-15T07:14:43.555Z,79.47
2023-03-15T07:17:11.106Z,80.01
2023-03-15T07:19:46.873Z,79.64
2023-03-15T07:22:23.095Z,79.40
2023-03-15T07:24:52.371Z,78.21
2023-03-15T07:27:20.932Z,78.50
2023-03-15T07:29:48.925Z,78.63
2023-03-15T07:32:17.923Z,78.97
2023-03-15T07:34:45.252Z,79.76
2023-03-15T07:37:12.661Z,78.32
2023-03-15T07:39:42.456Z,77.73
2023-03-15T07:42:09.930Z,78.19
2023-03-15T07:44:38.073Z,77.81
2023-03-15T07:47:12.051Z,77.07
2023-03-15T07:49:39.687Z,76.44
2023-03-15T07:52:08.526Z,76.96
2023-03-15T07:54:36.175Z,77.03
2023-03-15T07:57:03.912Z,76.30
2023-03-15T07:59:31.491Z,76.53
2023-03-15T08:02:02.805Z,75.57
2023-03-15T08:04:34.381Z,75.12
2023-03-15T08:07:04.508Z,75.69
2023-03-15T08:09:33.336Z,73.32
2023-03-15T08:12:01.711Z,73.93
2023-03-15T08:14:30.465Z,74.11
2023-03-15T08:16:57.630Z,71.45
2023-03-15T08:19:27.945Z,71.78
2023-03-15T08:21:55.270Z,72.92
2023-03-15T08:24:22.595Z,72.47
2023-03-15T08:26:56.504Z,72.14
2023-03-15T08:29:24.084Z,72.24
2023-03-15T08:31:51.554Z,72.13
2023-03-15T08:34:18.987Z,71.78
2023-03-15T08:36:49.965Z,71.95
2023-03-15T08:39:17.915Z,72.49
2023-03-15T08:41:47.630Z,72.28
2023-03-15T08:44:21.080Z,72.12
2023-03-15T08:46:50.390Z,72.61
2023-03-15T08:49:17.536Z,71.67
2023-03-15T08:51:45.117Z,71.69
2023-03-15T08:54:14.655Z,70.67
2023-03-15T08:56:42.465Z,71.36
2023-03-15T08:59:12.803Z,72.22
2023-03-15T09:01:42.032Z,71.06
2023-03-15T09:04:09.471Z,71.20
2023-03-15T09:06:36.557Z,69.64
2023-03-15T09:09:04.871Z,68.42
2023-03-15T09:11:32.236Z,69.22
2023-03-15T09:13:59.290Z,68.00
2023-03-15T09:16:26.780Z,68.92
2023-03-15T09:18:54.175Z,67.93
2023-03-15T09:21:21.837Z,66.95
2023-03-15T09:23:49.014Z,67.71
2023-03-15T09:26:16.040Z,67.20
2023-03-15T09:28:43.091Z,65.97
2023-03-15T09:31:10.466Z,66.29
2023-03-15T09:33:37.949Z,66.49
2023-03-15T09:36:05.602Z,66.82
2023-03-15T09:38:32.783Z,66.83
2023-03-15T09:41:01.048Z,64.22
2023-03-15T09:43:56.952Z,64.21
2023-03-15T09:46:29.670Z,64.70
2023-03-15T09:49:10.606Z,65.71
2023-03-15T09:51:48.379Z,65.37
2023-03-15T09:54:20.747Z,64.00
2023-03-15T09:56:55.019Z,64.04
2023-03-15T09:59:26.940Z,64.51
2023-03-15T10:01:57.145Z,64.33
2023-03-15T10:04:42.483Z,61.90
2023-03-15T10:07:16.965Z,61.65
2023-03-15T10:09:45.835Z,63.36
2023-03-15T10:12:16.902Z,63.43
2023-03-15T10:15:05.256Z,64.49
2023-03-15T10:17:53.734Z,63.85
2023-03-15T10:20:27.344Z,63.93
2023-03-15T10:23:24.156Z,63.14
2023-03-15T10:25:52.314Z,62.90
2023-03-15T10:28:31.290Z,63.22
2023-03-15T10:31:11.209Z,64.27
2023-03-15T10:33:39.980Z,62.82
2023-03-15T10:36:19.183Z,60.97
2023-03-15T10:38:50.615Z,61.40
2023-03-15T10:41:48.813Z,61.30
2023-03-15T10:44:26.970Z,62.59
2023-03-15T10:47:23.674Z,60.94
2023-03-15T10:49:58.172Z,61.10
2023-03-15T10:52:40.978Z,61.36
2023-03-15T10:55:28.154Z,60.93
2023-03-15T10:58:12.456Z,60.52
2023-03-15T11:00:48.510Z,61.35
2023-03-15T11:03:22.591Z,62.11
2023-03-15T11:05:58.376Z,59.72
2023-03-15T11:08:39.083Z,59.70
2023-03-15T11:11:07.527Z,59.35
2023-03-15T11:13:37.221Z,59.27
2023-03-15T11:16:20.024Z,59.02
2023-03-15T11:18:57.921Z,60.51
2023-03-15T11:21:33.720Z,60.53
2023-03-15T11:24:08.822Z,57.92
2023-03-15T11:26:41.247Z,57.70
2023-03-15T11:29:19.527Z,55.58
2023-03-15T11:31:47.464Z,56.20
2023-03-15T11:34:25.740Z,54.03
2023-03-15T11:37:07.901Z,54.36
2023-03-15T11:39:45.648Z,52.33
2023-03-15T11:42:20.776Z,53.97
2023-03-15T11:44:50.829Z,53.81
2023-03-15T11:47:47.441Z,54.02
2023-03-15T11:50:16.261Z,55.33
2023-03-15T11:52:48.085Z,53.21
2023-03-15T11:55:35.809Z,50.24
2023-03-15T11:58:32.015Z,49.23
2023-03-15T12:01:26.812Z,49.06
2023-03-15T12:04:33.911Z,50.58
2023-03-15T12:07:04.947Z,50.06
2023-03-15T12:09:38.000Z,49.91
2023-03-15T12:12:27.096Z,51.81
2023-03-15T12:15:15.359Z,52.21
2023-03-15T12:17:56.136Z,51.30
2023-03-15T12:20:53.717Z,52.37
2023-03-15T12:23:32.716Z,52.41
2023-03-15T12:26:07.391Z,52.35
2023-03-15T12:28:39.025Z,54.72
2023-03-15T12:31:13.335Z,53.28
2023-03-15T12:33:58.751Z,54.18
2023-03-15T12:36:41.796Z,52.48
2023-03-15T12:39:10.283Z,53.74
2023-03-15T12:41:40.967Z,50.62
2023-03-15T12:44:38.634Z,51.73
2023-03-15T12:47:08.308Z,53.60
2023-03-15T12:49:40.462Z,53.50
2023-03-15T12:52:27.814Z,53.11
2023-03-15T12:55:06.314Z,52.82
2023-03-15T12:57:45.539Z,52.94
2023-03-15T13:00:16.032Z,52.91
2023-03-15T13:02:51.125Z,50.99
2023-03-15T13:06:01.334Z,53.17
2023-03-15T13:08:41.863Z,50.65
2023-03-15T13:11:26.150Z,51.10
2023-03-15T13:14:08.554Z,50.70
2023-03-15T13:16:43.949Z,50.42
2023-03-15T13:19:26.366Z,50.89
2023-03-15T13:22:12.724Z,49.79
2023-03-15T13:24:45.336Z,49.64
2023-03-15T13:27:38.581Z,49.12
2023-03-15T13:30:30.732Z,50.50
2023-03-15T13:33:27.862Z,49.99
2023-03-15T13:36:01.391Z,49.88
2023-03-15T13:38:37.714Z,48.67
2023-03-15T13:41:16.670Z,50.07
2023-03-15T13:43:45.285Z,48.53
2023-03-15T13:46:13.096Z,48.31
2023-03-15T13:48:47.969Z,47.90
2023-03-15T13:51:25.658Z,48.48
2023-03-15T13:53:56.361Z,47.84
2023-03-15T13:56:48.787Z,50.55
2023-03-15T13:59:17.896Z,50.27
2023-03-15T14:01:45.709Z,50.27
2023-03-15T14:04:17.712Z,50.64
2023-03-15T14:06:48.407Z,52.09
2023-03-15T14:09:26.302Z,51.52
2023-03-15T14:12:07.498Z,48.71
2023-03-15T14:14:46.729Z,48.38
2023-03-15T14:17:32.368Z,47.85
2023-03-15T14:20:09.403Z,46.05
2023-03-15T14:22:37.357Z,46.56
2023-03-15T14:25:19.388Z,45.08
2023-03-15T14:27:47.672Z,44.45
2023-03-15T14:30:24.635Z,44.51
2023-03-15T14:32:57.897Z,44.42
2023-03-15T14:35:37.624Z,45.08
2023-03-15T14:38:24.577Z,45.00
2023-03-15T14:40:54.800Z,46.00
2023-03-15T14:43:23.798Z,44.56
2023-03-15T14:45:51.275Z,45.39
2023-03-15T14:48:28.712Z,46.40
2023-03-15T14:50:56.842Z,45.66
2023-03-15T14:53:27.017Z,45.48
2023-03-15T14:55:55.364Z,45.60
2023-03-15T14:58:29.955Z,45.87
2023-03-15T15:01:01.378Z,42.84
2023-03-15T15:03:38.668Z,41.78
2023-03-15T15:06:09.323Z,42.35
2023-03-15T15:08:40.375Z,40.68
2023-03-15T15:11:09.246Z,40.75
2023-03-15T15:13:38.561Z,39.78
2023-03-15T15:16:09.022Z,38.28
2023-03-15T15:18:38.064Z,37.15
2023-03-15T15:21:33.874Z,37.44
2023-03-15T15:24:03.481Z,38.87
2023-03-15T15:26:31.945Z,39.38
2023-03-15T15:28:59.975Z,40.70
2023-03-15T15:31:28.529Z,41.02
2023-03-15T15:33:56.789Z,42.75
2023-03-15T15:36:34.963Z,41.73
2023-03-15T15:39:06.728Z,45.32
2023-03-15T15:41:35.102Z,46.52
2023-03-15T15:44:02.132Z,45.29
2023-03-15T15:46:29.475Z,45.65
2023-03-15T15:48:59.101Z,44.00
2023-03-15T15:51:28.427Z,44.25
2023-03-15T15:53:57.591Z,44.31
2023-03-15T15:56:29.315Z,44.50
2023-03-15T15:58:58.037Z,45.48
2023-03-15T16:01:32.124Z,47.03
2023-03-15T16:04:01.254Z,46.39
2023-03-15T16:06:28.731Z,47.12
2023-03-15T16:08:58.686Z,47.30
2023-03-15T16:11:32.353Z,47.68
2023-03-15T16:14:01.648Z,48.09
2023-03-15T16:16:29.038Z,47.43
2023-03-15T16:18:59.094Z,49.12
2023-03-15T16:21:34.404Z,50.19
2023-03-15T16:24:12.356Z,50.47
2023-03-15T16:26:41.098Z,50.06
2023-03-15T16:29:20.614Z,50.63
2023-03-15T16:31:48.564Z,51.55
2023-03-15T16:34:18.995Z,52.14
2023-03-15T16:36:51.181Z,53.00
2023-03-15T16:39:19.113Z,53.66
2023-03-15T16:41:47.186Z,53.46
2023-03-15T16:44:19.311Z,54.71
2023-03-15T16:46:47.679Z,56.07
2023-03-15T16:49:17.638Z,56.86
2023-03-15T16:51:49.936Z,57.30
2023-03-15T16:54:34.616Z,58.09
2023-03-15T16:57:29.001Z,59.89
2023-03-15T16:59:58.869Z,60.49
2023-03-15T17:02:31.598Z,60.67
2023-03-15T17:05:07.220Z,60.89
2023-03-15T17:07:41.376Z,60.59
2023-03-15T17:10:33.393Z,59.83
2023-03-15T17:13:09.510Z,61.31
2023-03-15T17:15:38.636Z,61.24
2023-03-15T17:18:16.201Z,61.80
2023-03-15T17:20:50.219Z,61.85
2023-03-15T17:23:21.588Z,62.65
2023-03-15T17:25:51.235Z,64.16
2023-03-15T17:28:26.374Z,64.78
2023-03-15T17:31:14.253Z,66.28
2023-03-15T17:33:47.843Z,66.87
2023-03-15T17:36:28.525Z,68.31
2023-03-15T17:38:57.128Z,70.06
2023-03-15T17:41:41.229Z,72.28
2023-03-15T17:44:14.614Z,74.75
2023-03-15T17:46:44.331Z,76.35
2023-03-15T17:49:15.365Z,77.66
2023-03-15T17:51:44.784Z,78.43
2023-03-15T17:54:20.845Z,79.10
2023-03-15T17:56:50.301Z,79.81
2023-03-15T17:59:20.154Z,80.52
2023-03-15T18:01:50.125Z,81.66
2023-03-15T18:04:22.306Z,82.57
2023-03-15T18:06:50.667Z,83.16
2023-03-15T18:09:20.002Z,83.50
2023-03-15T18:11:49.219Z,82.38
2023-03-15T18:14:19.718Z,81.82
2023-03-15T18:16:51.116Z,82.27
2023-03-15T18:19:18.857Z,81.88
2023-03-15T18:21:47.008Z,81.00
2023-03-15T18:24:21.474Z,79.89
2023-03-15T18:26:51.107Z,79.76
2023-03-15T18:29:21.289Z,80.05
2023-03-15T18:31:49.488Z,80.64
2023-03-15T18:34:19.904Z,81.00
2023-03-15T18:36:48.328Z,80.96
2023-03-15T18:39:17.678Z,81.09
2023-03-15T18:41:46.923Z,81.51
2023-03-15T18:44:15.759Z,81.84
2023-03-15T18:46:47.126Z,81.51
2023-03-15T18:49:16.387Z,82.04
2023-03-15T18:51:46.093Z,84.02
2023-03-15T18:54:15.704Z,84.32
2023-03-15T18:56:44.419Z,84.53
2023-03-15T18:59:12.965Z,83.84
2023-03-15T19:01:43.141Z,83.80
2023-03-15T19:04:17.677Z,84.32
2023-03-15T19:06:46.012Z,85.54
2023-03-15T19:09:14.592Z,86.58
2023-03-15T19:11:44.438Z,86.96
2023-03-15T19:14:12.710Z,86.36
2023-03-15T19:16:40.948Z,87.12
2023-03-15T19:19:08.829Z,88.40
2023-03-15T19:21:39.705Z,89.27
2023-03-15T19:24:08.324Z,89.56
2023-03-15T19:26:40.741Z,89.60
2023-03-15T19:29:09.341Z,89.27
2023-03-15T19:31:41.902Z,88.33
2023-03-15T19:34:11.371Z,87.37
2023-03-15T19:36:39.693Z,86.74
2023-03-15T19:39:12.812Z,86.50
2023-03-15T19:41:42.566Z,86.57
2023-03-15T19:44:11.465Z,86.54
2023-03-15T19:46:39.940Z,87.10
2023-03-15T19:49:09.924Z,86.78
2023-03-15T19:51:39.893Z,86.26
2023-03-15T19:54:10.164Z,86.59
2023-03-15T19:56:39.140Z,86.70
2023-03-15T19:59:08.917Z,87.07
2023-03-15T20:01:40.151Z,87.89
2023-03-15T20:04:11.284Z,89.08
2023-03-15T20:06:40.197Z,89.24
2023-03-15T20:09:08.914Z,89.35
2023-03-15T20:11:37.852Z,88.87
2023-03-15T20:14:06.550Z,89.35
2023-03-15T20:16:35.398Z,90.89
2023-03-15T20:19:06.001Z,91.37
2023-03-15T20:21:35.980Z,92.10
2023-03-15T20:24:05.930Z,93.04
2023-03-15T20:26:38.185Z,93.22
2023-03-15T20:29:08.357Z,93.52
2023-03-15T20:31:39.125Z,94.18
2023-03-15T20:34:09.739Z,94.10
2023-03-15T20:36:39.636Z,94.00
2023-03-15T20:39:08.034Z,94.19
2023-03-15T20:41:46.515Z,94.75
2023-03-15T20:44:21.144Z,95.84
2023-03-15T20:46:49.533Z,97.06
2023-03-15T20:49:19.422Z,99.31
2023-03-15T20:51:47.932Z,100.00
2023-03-15T20:54:18.232Z,100.00
2023-03-15T20:56:46.874Z,100.00
2023-03-15T20:59:16.690Z,100.00
2023-03-15T21:01:47.837Z,100.00
2023-03-15T21:04:17.150Z,100.00
2023-03-15T21:06:45.276Z,100.00
2023-03-15T21:09:15.672Z,100.00
2023-03-15T21:11:45.476Z,100.00
2023-03-15T21:14:15.379Z,100.00
2023-03-15T21:16:45.613Z,100.00
2023-03-15T21:19:14.772Z,100.00
2023-03-15T21:21:45.640Z,100.00
2023-03-15T21:24:13.976Z,100.00
2023-03-15T21:26:44.766Z,100.00
2023-03-15T21:29:13.198Z,100.00
2023-03-15T21:31:41.224Z,100.00
2023-03-15T21:34:09.284Z,100.00
2023-03-15T21:36:37.523Z,100.00
2023-03-15T21:39:09.111Z,100.00
2023-03-15T21:41:38.434Z,100.00
2023-03-15T21:44:06.228Z,100.00
2023-03-15T21:46:34.477Z,100.00
2023-03-15T21:49:02.542Z,100.00
2023-03-15T21:51:34.723Z,100.00
2023-03-15T21:54:02.240Z,100.00
2023-03-15T21:56:35.720Z,100.00
2023-03-15T21:59:04.193Z,100.00
2023-03-15T22:01:31.878Z,100.00
2023-03-15T22:03:59.517Z,100.00
2023-03-15T22:06:26.844Z,100.00
2023-03-15T22:08:54.189Z,100.00
2023-03-15T22:11:23.158Z,100.00
2023-03-15T22:13:50.768Z,100.00
2023-03-15T22:16:18.071Z,100.00
2023-03-15T22:18:47.476Z,100.00
2023-03-15T22:21:14.928Z,100.00
2023-03-15T22:23:42.457Z,100.00
2023-03-15T22:26:11.192Z,100.00
2023-03-15T22:28:38.544Z,100.00
2023-03-15T22:31:12.112Z,100.00
2023-03-15T22:33:40.749Z,100.00
2023-03-15T22:36:08.293Z,100.00
2023-03-15T22:38:38.297Z,100.00
2023-03-15T22:41:10.462Z,100.00
2023-03-15T22:43:39.230Z,100.00
2023-03-15T22:46:07.905Z,100.00
2023-03-15T22:48:35.630Z,100.00
2023-03-15T22:51:06.136Z,100.00
2023-03-15T22:53:34.815Z,100.00
2023-03-15T22:56:02.041Z,100.00
2023-03-15T22:58:29.765Z,100.00
2023-03-15T23:00:56.868Z,100.00
2023-03-15T23:03:24.655Z,100.00
2023-03-15T23:05:51.838Z,100.00
2023-03-15T23:08:19.426Z,100.00
2023-03-15T23:10:46.813Z,100.00
2023-03-15T23:13:14.954Z,100.00
2023-03-15T23:15:43.651Z,100.00
2023-03-15T23:18:11.099Z,100.00
2023-03-15T23:20:38.820Z,100.00
2023-03-15T23:23:06.010Z,100.00
2023-03-15T23:25:38.277Z,100.00
2023-03-15T23:28:06.869Z,100.00
2023-03-15T23:30:36.121Z,100.00
2023-03-15T23:33:08.158Z,100.00
2023-03-15T23:35:35.648Z,100.00
2023-03-15T23:38:03.325Z,100.00
2023-03-15T23:40:30.457Z,100.00
2023-03-15T23:43:00.561Z,100.00
2023-03-15T23:45:30.503Z,100.00
2023-03-15T23:47:59.047Z,100.00
2023-03-15T23:50:27.926Z,100.00
2023-03-15T23:52:56.534Z,100.00
2023-03-15T23:55:24.777Z,100.00
2023-03-15T23:57:53.210Z,100.00
